This is the latest recevied weather packets stored in our database for station/object VK4JLM-1. If no packets are shown the sender has not sent any weather packets the latest 10 day(s).
| Time | Temp. | Humidity | Pressure | Rain* | Wind** | Luminosity | Snow |
|---|---|---|---|---|---|---|---|
| 1777504649 | 28.33° C | 56% | 1029.1 hPa | 0 mm | - | - | - |
| 1777503656 | 26.11° C | 62% | 1029 hPa | 0 mm | - | - | - |
| 1777502541 | 24.44° C | 67% | 1029.1 hPa | 0 mm | - | - | - |
| 1777501531 | 25° C | 63% | 1028.9 hPa | 0 mm | - | - | - |
| 1777500396 | 22.78° C | 69% | 1028.9 hPa | 0 mm | - | - | - |
| 1777499216 | 18.89° C | 84% | 1028.7 hPa | 0 mm | - | - | - |
| 1777498086 | 16.67° C | 94% | 1028.5 hPa | 0.25 mm | - | - | - |
| 1777497126 | 16.67° C | 93% | 1028.4 hPa | 0.25 mm | - | - | - |
| 1777494911 | 15.56° C | 96% | 1028.1 hPa | 0 mm | - | - | - |
| 1777493856 | 15° C | 98% | 1027.8 hPa | 0 mm | - | - | - |
| 1777492836 | 15° C | 99% | 1027.8 hPa | 0 mm | - | - | - |
| 1777491871 | 15.56° C | 96% | 1027.5 hPa | 0 mm | - | - | - |
| 1777490721 | 15.56° C | 97% | 1027.3 hPa | 0 mm | - | - | - |
| 1777489661 | 16.11° C | 93% | 1027.1 hPa | 0 mm | - | - | - |
| 1777488499 | 16.11° C | 94% | 1027 hPa | 0 mm | - | - | - |
| 1777487406 | 15.56° C | 98% | 1027.1 hPa | 0 mm | - | - | - |
| 1777486271 | 16.11° C | 94% | 1027 hPa | 0 mm | - | - | - |
| 1777485226 | 16.11° C | 95% | 1027 hPa | 0 mm | - | - | - |
| 1777484216 | 16.11° C | 97% | 1027.1 hPa | 0 mm | - | - | - |
| 1777483041 | 16.11° C | 97% | 1027.2 hPa | 0 mm | - | - | - |
| 1777482071 | 16.67° C | 96% | 1027.2 hPa | 0 mm | - | - | - |
| 1777481101 | 16.67° C | 95% | 1027.2 hPa | 0 mm | - | - | - |
| 1777479946 | 16.67° C | 97% | 1027.3 hPa | 0 mm | - | - | - |
| 1777478796 | 17.22° C | 96% | 1027.5 hPa | 0 mm | - | - | - |
| 1777477796 | 17.22° C | 96% | 1027.6 hPa | 0.25 mm | - | - | - |
* Rain latest hour (hover to see other rain measurements)
** Current wind speed in m/s (hover to see current wind gust speed)